Airfield :
LOGIN :

Register | Disclaimer

   EN    FR    IT 

 










Legend :    VFR   Marginal VFR   IFR   Intensive IFR   Very Intensive IFR
Visi :
Ceiling :
>= 8 km
>= 3000ft
5 to 8 km
1000 to 3000 ft
1500m to 5 km
500 to 1000 ft
800 to 1500m
200 to 500 ft
< 800m
< 200 ft
Symbols :   Thunderstorms  Fog  Heavy snow  Heavy precipitations  Wind > 20 kt
SIGMETs :     Misc.  Thunderstorms  Icing  Turbulence  Mountain Waves  Volcanic Ashes






- Airport Elevation : 268 ft
- IATA code : BFS


EGAA - Belfast Aldergrove

CURRENT METAR :
  • 242320Z 23015KT 9999 FEW013 SCT040 03/02 Q1000

EXPIRED METARs :
  • 242250Z 22011KT 9999 FEW013 SCT046 03/02 Q1001
  • 242220Z 21006KT 9999 FEW026 BKN032 03/02 Q1001
  • 242150Z 24009KT 9999 FEW022 SCT038 BKN046 03/02 Q1001
  • 242120Z 24010KT 9999 FEW028 SCT042 03/01 Q1001

TAF TAF EGAA
Valid from the 25 at 00:00 until the 26 at 00:00 UTC


242257Z 2500/2524 25012KT 9999 FEW015 SCT030
TEMPO 2500/2519 27015G25KT 6000 SHRA SCT008 BKN012
PROB40
TEMPO 2500/2510 4000 SHRASN BKN004 BKN014CB
PROB40
TEMPO 2510/2519 4000 SHRASN SHGS BKN006 BKN014CB
PROB30
TEMPO 2517/2524 1400 SHSN BKN002
TEMPO 2519/2524 4000 SHRASN BKN006



MET'MAP, your aeronautical weather chart ! - Copyright ORBIFLY December 2007 - Disclaimer

ORBIFLY MET'MAP TEAM :

Programming & Development : Alexandra Zaïnal
Concept & original design : Baudouin d'Aumeries
Assistance for programming : Marc-Olivier Méhu
Technical & hardware support : Manuel Goepfert

Contact : metmap@orbifly.com




SOURCES & CREDITS :

   NOAA